Lamar, Pennsylvania
Current Conditions -  °F | °C
As of 3:53 PM on Friday 19 Dec 2014 (Local Time) from KUNV Reporting Station
Broken Clouds Broken Clouds  
Wind Chill: 21°   Ceiling: 3100
Heat Index: 32°   Visibility: 10mi
Dew Point: 19°   Wind: 16mph
Humidity: 60%   Direction: 300°WNW
Pressure: 30.13"   Gusts: NA
Location:  41.02°N, 77.53°W
Report Text: KUNV 192053Z 30014KT 10SM BKN031 00/M07 A3013
Loading
Personal Weather Stations






























Interactive Weather Map New forecast layout! Learn more

10-Day Weather Forecast

Advertisements
Track Severe Weather on mobile